sensor_id;sensor_type;location;lat;lon;timestamp;pressure;altitude;pressure_sealevel;temperature;humidity
74881;BME280;63427;49.654;6.596;2023-06-14T00:00:37;99301.69;;;17.07;31.90
74881;BME280;63427;49.654;6.596;2023-06-14T00:03:02;99297.23;;;17.19;30.92
74881;BME280;63427;49.654;6.596;2023-06-14T00:05:28;99301.30;;;17.04;31.03
74881;BME280;63427;49.654;6.596;2023-06-14T00:07:53;99297.78;;;17.00;31.21
74881;BME280;63427;49.654;6.596;2023-06-14T00:10:19;99299.69;;;17.54;31.13
74881;BME280;63427;49.654;6.596;2023-06-14T00:12:44;99300.67;;;16.97;31.12
74881;BME280;63427;49.654;6.596;2023-06-14T00:15:10;99302.61;;;17.02;31.38
74881;BME280;63427;49.654;6.596;2023-06-14T00:17:35;99301.31;;;17.10;31.43
74881;BME280;63427;49.654;6.596;2023-06-14T00:20:02;99301.50;;;17.38;31.18
74881;BME280;63427;49.654;6.596;2023-06-14T00:22:26;99303.48;;;17.20;31.31
74881;BME280;63427;49.654;6.596;2023-06-14T00:24:51;99301.48;;;17.17;31.64
74881;BME280;63427;49.654;6.596;2023-06-14T00:27:16;99302.33;;;16.71;31.44
74881;BME280;63427;49.654;6.596;2023-06-14T00:29:42;99302.55;;;16.99;31.56
74881;BME280;63427;49.654;6.596;2023-06-14T00:32:08;99303.23;;;16.58;31.43
74881;BME280;63427;49.654;6.596;2023-06-14T00:34:33;99304.19;;;16.75;31.57
74881;BME280;63427;49.654;6.596;2023-06-14T00:36:59;99304.97;;;16.85;31.60
74881;BME280;63427;49.654;6.596;2023-06-14T00:39:24;99305.74;;;16.71;31.41
74881;BME280;63427;49.654;6.596;2023-06-14T00:41:50;99303.61;;;16.68;31.91
74881;BME280;63427;49.654;6.596;2023-06-14T00:44:16;99304.58;;;16.65;32.12
74881;BME280;63427;49.654;6.596;2023-06-14T00:46:41;99304.24;;;16.47;32.71
74881;BME280;63427;49.654;6.596;2023-06-14T00:49:06;99305.81;;;16.38;32.20
74881;BME280;63427;49.654;6.596;2023-06-14T00:51:32;99308.20;;;16.39;32.40
74881;BME280;63427;49.654;6.596;2023-06-14T00:53:58;99315.14;;;16.25;32.38
74881;BME280;63427;49.654;6.596;2023-06-14T00:56:24;99310.67;;;16.44;31.51
74881;BME280;63427;49.654;6.596;2023-06-14T00:58:49;99317.13;;;16.20;32.97
74881;BME280;63427;49.654;6.596;2023-06-14T01:01:15;99313.75;;;15.83;31.98
74881;BME280;63427;49.654;6.596;2023-06-14T01:03:40;99314.97;;;16.00;31.96
74881;BME280;63427;49.654;6.596;2023-06-14T01:06:14;99321.69;;;15.93;32.79
74881;BME280;63427;49.654;6.596;2023-06-14T01:08:39;99323.82;;;15.83;33.15
74881;BME280;63427;49.654;6.596;2023-06-14T01:11:02;99323.36;;;15.73;33.26
74881;BME280;63427;49.654;6.596;2023-06-14T01:13:27;99324.68;;;16.24;32.42
74881;BME280;63427;49.654;6.596;2023-06-14T01:15:48;99323.64;;;15.44;33.43
74881;BME280;63427;49.654;6.596;2023-06-14T01:18:13;99326.20;;;15.72;32.41
74881;BME280;63427;49.654;6.596;2023-06-14T01:20:38;99326.10;;;15.69;33.68
74881;BME280;63427;49.654;6.596;2023-06-14T01:23:03;99323.34;;;15.95;32.69
74881;BME280;63427;49.654;6.596;2023-06-14T01:25:29;99325.82;;;15.82;32.52
74881;BME280;63427;49.654;6.596;2023-06-14T01:27:58;99326.18;;;15.86;33.08
74881;BME280;63427;49.654;6.596;2023-06-14T01:30:21;99325.67;;;15.50;33.12
74881;BME280;63427;49.654;6.596;2023-06-14T01:32:46;99326.47;;;15.78;33.44
74881;BME280;63427;49.654;6.596;2023-06-14T01:35:11;99323.47;;;15.78;33.54
74881;BME280;63427;49.654;6.596;2023-06-14T01:37:37;99328.74;;;15.55;34.48
74881;BME280;63427;49.654;6.596;2023-06-14T01:40:03;99330.38;;;15.45;34.39
74881;BME280;63427;49.654;6.596;2023-06-14T01:42:28;99334.76;;;15.71;34.35
74881;BME280;63427;49.654;6.596;2023-06-14T01:44:54;99338.55;;;15.46;33.82
74881;BME280;63427;49.654;6.596;2023-06-14T01:47:19;99340.22;;;15.44;33.55
74881;BME280;63427;49.654;6.596;2023-06-14T01:49:46;99338.74;;;15.37;34.23
74881;BME280;63427;49.654;6.596;2023-06-14T01:52:10;99337.20;;;15.42;33.72
74881;BME280;63427;49.654;6.596;2023-06-14T01:54:36;99343.95;;;15.44;34.17
74881;BME280;63427;49.654;6.596;2023-06-14T01:57:01;99341.57;;;15.29;34.31
74881;BME280;63427;49.654;6.596;2023-06-14T01:59:26;99345.90;;;15.31;35.05
74881;BME280;63427;49.654;6.596;2023-06-14T02:01:52;99344.27;;;15.00;34.72
74881;BME280;63427;49.654;6.596;2023-06-14T02:04:17;99342.99;;;15.11;33.72
74881;BME280;63427;49.654;6.596;2023-06-14T02:06:43;99345.44;;;15.40;33.75
74881;BME280;63427;49.654;6.596;2023-06-14T02:09:08;99342.87;;;15.07;34.01
74881;BME280;63427;49.654;6.596;2023-06-14T02:11:34;99343.36;;;15.21;34.64
74881;BME280;63427;49.654;6.596;2023-06-14T02:14:00;99346.21;;;15.24;34.27
74881;BME280;63427;49.654;6.596;2023-06-14T02:16:25;99346.07;;;14.83;34.42
74881;BME280;63427;49.654;6.596;2023-06-14T02:18:51;99343.74;;;15.00;34.82
74881;BME280;63427;49.654;6.596;2023-06-14T02:21:16;99342.39;;;14.91;35.26
74881;BME280;63427;49.654;6.596;2023-06-14T02:23:42;99340.85;;;14.90;34.87
74881;BME280;63427;49.654;6.596;2023-06-14T02:26:07;99342.67;;;15.07;34.74
74881;BME280;63427;49.654;6.596;2023-06-14T02:28:38;99346.31;;;14.90;34.01
74881;BME280;63427;49.654;6.596;2023-06-14T02:30:59;99345.98;;;14.99;34.27
74881;BME280;63427;49.654;6.596;2023-06-14T02:33:24;99346.52;;;14.85;34.67
74881;BME280;63427;49.654;6.596;2023-06-14T02:35:50;99344.76;;;14.79;35.25
74881;BME280;63427;49.654;6.596;2023-06-14T02:38:15;99348.41;;;14.48;36.14
74881;BME280;63427;49.654;6.596;2023-06-14T02:40:41;99348.67;;;14.48;35.39
74881;BME280;63427;49.654;6.596;2023-06-14T02:43:06;99349.79;;;14.53;35.63
74881;BME280;63427;49.654;6.596;2023-06-14T02:45:32;99348.60;;;14.32;35.99
74881;BME280;63427;49.654;6.596;2023-06-14T02:47:57;99347.55;;;14.30;35.89
74881;BME280;63427;49.654;6.596;2023-06-14T02:50:22;99348.69;;;14.52;35.53
74881;BME280;63427;49.654;6.596;2023-06-14T02:52:48;99348.44;;;14.73;35.43
74881;BME280;63427;49.654;6.596;2023-06-14T02:55:13;99347.98;;;14.18;35.75
74881;BME280;63427;49.654;6.596;2023-06-14T02:57:38;99349.12;;;14.08;36.25
74881;BME280;63427;49.654;6.596;2023-06-14T03:00:04;99352.60;;;14.04;35.87
74881;BME280;63427;49.654;6.596;2023-06-14T03:02:28;99352.48;;;14.48;35.62
74881;BME280;63427;49.654;6.596;2023-06-14T03:04:54;99358.01;;;14.34;36.61
74881;BME280;63427;49.654;6.596;2023-06-14T03:07:20;99353.24;;;14.16;36.03
74881;BME280;63427;49.654;6.596;2023-06-14T03:09:45;99359.10;;;14.34;36.40
74881;BME280;63427;49.654;6.596;2023-06-14T03:12:11;99359.88;;;13.79;36.56
74881;BME280;63427;49.654;6.596;2023-06-14T03:14:36;99358.47;;;14.16;36.07
74881;BME280;63427;49.654;6.596;2023-06-14T03:17:02;99361.17;;;13.93;36.51
74881;BME280;63427;49.654;6.596;2023-06-14T03:19:27;99361.85;;;14.16;37.01
74881;BME280;63427;49.654;6.596;2023-06-14T03:21:52;99366.51;;;14.13;36.98
74881;BME280;63427;49.654;6.596;2023-06-14T03:24:18;99365.61;;;14.15;36.38
74881;BME280;63427;49.654;6.596;2023-06-14T03:26:44;99366.80;;;14.46;36.61
74881;BME280;63427;49.654;6.596;2023-06-14T03:29:09;99366.03;;;14.00;37.13
74881;BME280;63427;49.654;6.596;2023-06-14T03:31:39;99371.36;;;13.84;37.24
74881;BME280;63427;49.654;6.596;2023-06-14T03:34:01;99371.52;;;13.84;36.82
74881;BME280;63427;49.654;6.596;2023-06-14T03:36:26;99373.39;;;14.06;36.54
74881;BME280;63427;49.654;6.596;2023-06-14T03:38:51;99373.50;;;13.74;36.96
74881;BME280;63427;49.654;6.596;2023-06-14T03:41:17;99378.43;;;13.98;36.75
74881;BME280;63427;49.654;6.596;2023-06-14T03:43:42;99380.83;;;14.03;36.50
74881;BME280;63427;49.654;6.596;2023-06-14T03:46:08;99385.06;;;13.94;37.28
74881;BME280;63427;49.654;6.596;2023-06-14T03:48:33;99385.17;;;14.01;37.07
74881;BME280;63427;49.654;6.596;2023-06-14T03:50:59;99382.97;;;14.07;37.43
74881;BME280;63427;49.654;6.596;2023-06-14T03:53:24;99382.91;;;13.92;37.50
74881;BME280;63427;49.654;6.596;2023-06-14T03:55:50;99380.84;;;14.20;36.18
74881;BME280;63427;49.654;6.596;2023-06-14T03:58:15;99382.00;;;14.11;36.87
74881;BME280;63427;49.654;6.596;2023-06-14T04:00:41;99386.11;;;14.11;37.18
74881;BME280;63427;49.654;6.596;2023-06-14T04:03:07;99385.01;;;14.13;36.87
74881;BME280;63427;49.654;6.596;2023-06-14T04:05:32;99388.19;;;14.29;37.08
74881;BME280;63427;49.654;6.596;2023-06-14T04:07:58;99389.26;;;14.00;37.71
74881;BME280;63427;49.654;6.596;2023-06-14T04:10:23;99392.22;;;13.95;37.41
74881;BME280;63427;49.654;6.596;2023-06-14T04:12:48;99393.23;;;13.97;37.78
74881;BME280;63427;49.654;6.596;2023-06-14T04:15:14;99394.05;;;14.17;37.22
74881;BME280;63427;49.654;6.596;2023-06-14T04:17:40;99397.88;;;14.22;36.58
74881;BME280;63427;49.654;6.596;2023-06-14T04:20:06;99400.80;;;13.97;37.65
74881;BME280;63427;49.654;6.596;2023-06-14T04:22:31;99404.93;;;13.69;37.83
74881;BME280;63427;49.654;6.596;2023-06-14T04:24:56;99404.45;;;13.99;37.44
74881;BME280;63427;49.654;6.596;2023-06-14T04:27:21;99405.58;;;13.85;37.77
74881;BME280;63427;49.654;6.596;2023-06-14T04:29:46;99409.02;;;14.60;36.81
74881;BME280;63427;49.654;6.596;2023-06-14T04:32:12;99415.06;;;14.47;36.36
74881;BME280;63427;49.654;6.596;2023-06-14T04:34:37;99417.93;;;14.64;36.86
74881;BME280;63427;49.654;6.596;2023-06-14T04:37:03;99419.51;;;14.42;37.39
74881;BME280;63427;49.654;6.596;2023-06-14T04:39:29;99425.04;;;14.42;37.68
74881;BME280;63427;49.654;6.596;2023-06-14T04:41:54;99422.78;;;14.41;37.36
74881;BME280;63427;49.654;6.596;2023-06-14T04:44:21;99417.63;;;14.59;37.00
74881;BME280;63427;49.654;6.596;2023-06-14T04:46:44;99422.55;;;14.74;36.75
74881;BME280;63427;49.654;6.596;2023-06-14T04:49:10;99424.51;;;14.75;37.30
74881;BME280;63427;49.654;6.596;2023-06-14T04:51:35;99426.33;;;14.94;36.76
74881;BME280;63427;49.654;6.596;2023-06-14T04:54:01;99431.72;;;15.26;35.92
74881;BME280;63427;49.654;6.596;2023-06-14T04:56:30;99427.41;;;15.27;36.38
74881;BME280;63427;49.654;6.596;2023-06-14T04:58:52;99433.40;;;15.36;35.72
74881;BME280;63427;49.654;6.596;2023-06-14T05:01:17;99431.36;;;15.31;36.22
74881;BME280;63427;49.654;6.596;2023-06-14T05:03:43;99436.31;;;15.44;36.00
74881;BME280;63427;49.654;6.596;2023-06-14T05:06:08;99440.33;;;15.81;34.82
74881;BME280;63427;49.654;6.596;2023-06-14T05:08:33;99441.75;;;15.77;35.52
74881;BME280;63427;49.654;6.596;2023-06-14T05:10:59;99443.12;;;15.67;34.70
74881;BME280;63427;49.654;6.596;2023-06-14T05:13:24;99445.64;;;16.09;34.99
74881;BME280;63427;49.654;6.596;2023-06-14T05:15:49;99442.31;;;15.80;35.74
74881;BME280;63427;49.654;6.596;2023-06-14T05:18:15;99440.87;;;16.22;35.39
74881;BME280;63427;49.654;6.596;2023-06-14T05:20:40;99443.62;;;16.32;35.54
74881;BME280;63427;49.654;6.596;2023-06-14T05:23:06;99440.39;;;16.13;35.43
74881;BME280;63427;49.654;6.596;2023-06-14T05:25:31;99442.80;;;16.19;35.94
74881;BME280;63427;49.654;6.596;2023-06-14T05:27:57;99446.01;;;16.17;36.32
74881;BME280;63427;49.654;6.596;2023-06-14T05:30:22;99442.74;;;16.34;36.38
74881;BME280;63427;49.654;6.596;2023-06-14T05:32:48;99440.87;;;16.24;35.70
74881;BME280;63427;49.654;6.596;2023-06-14T05:35:14;99443.49;;;16.77;34.89
74881;BME280;63427;49.654;6.596;2023-06-14T05:37:39;99440.48;;;16.69;35.84
74881;BME280;63427;49.654;6.596;2023-06-14T05:40:06;99441.71;;;16.79;35.80
74881;BME280;63427;49.654;6.596;2023-06-14T05:42:30;99444.93;;;16.98;35.57
74881;BME280;63427;49.654;6.596;2023-06-14T05:44:55;99449.08;;;16.80;34.86
74881;BME280;63427;49.654;6.596;2023-06-14T05:47:21;99450.73;;;16.89;34.15
74881;BME280;63427;49.654;6.596;2023-06-14T05:49:46;99451.03;;;17.34;33.67
74881;BME280;63427;49.654;6.596;2023-06-14T05:52:12;99456.44;;;17.85;33.33
74881;BME280;63427;49.654;6.596;2023-06-14T05:54:37;99460.03;;;17.46;33.77
74881;BME280;63427;49.654;6.596;2023-06-14T05:57:02;99459.93;;;17.39;33.96
74881;BME280;63427;49.654;6.596;2023-06-14T05:59:27;99459.37;;;17.66;33.98
74881;BME280;63427;49.654;6.596;2023-06-14T06:01:52;99460.82;;;17.68;34.05
74881;BME280;63427;49.654;6.596;2023-06-14T06:04:18;99460.54;;;17.77;33.90
74881;BME280;63427;49.654;6.596;2023-06-14T06:06:43;99460.49;;;17.88;33.74
74881;BME280;63427;49.654;6.596;2023-06-14T06:09:10;99458.67;;;17.93;33.85
74881;BME280;63427;49.654;6.596;2023-06-14T06:11:34;99459.96;;;18.19;33.43
74881;BME280;63427;49.654;6.596;2023-06-14T06:14:00;99455.93;;;18.50;33.41
74881;BME280;63427;49.654;6.596;2023-06-14T06:16:24;99456.27;;;18.48;33.07
74881;BME280;63427;49.654;6.596;2023-06-14T06:18:50;99459.36;;;18.79;32.88
74881;BME280;63427;49.654;6.596;2023-06-14T06:21:15;99454.40;;;18.92;32.40
74881;BME280;63427;49.654;6.596;2023-06-14T06:23:40;99454.39;;;19.25;32.43
74881;BME280;63427;49.654;6.596;2023-06-14T06:26:05;99455.90;;;19.27;31.77
74881;BME280;63427;49.654;6.596;2023-06-14T06:28:30;99453.51;;;19.61;31.58
74881;BME280;63427;49.654;6.596;2023-06-14T06:30:56;99455.84;;;19.94;31.48
74881;BME280;63427;49.654;6.596;2023-06-14T06:33:21;99458.64;;;20.28;29.70
74881;BME280;63427;49.654;6.596;2023-06-14T06:35:46;99460.79;;;20.45;29.58
74881;BME280;63427;49.654;6.596;2023-06-14T06:38:12;99465.75;;;20.72;28.61
74881;BME280;63427;49.654;6.596;2023-06-14T06:40:38;99469.37;;;20.98;28.13
74881;BME280;63427;49.654;6.596;2023-06-14T06:43:03;99467.49;;;20.95;26.98
74881;BME280;63427;49.654;6.596;2023-06-14T06:45:29;99468.66;;;21.30;26.52
74881;BME280;63427;49.654;6.596;2023-06-14T06:47:54;99469.70;;;21.63;26.28
74881;BME280;63427;49.654;6.596;2023-06-14T06:50:20;99468.17;;;22.21;25.78
74881;BME280;63427;49.654;6.596;2023-06-14T06:52:45;99471.89;;;22.68;25.70
74881;BME280;63427;49.654;6.596;2023-06-14T06:55:10;99470.58;;;22.78;25.12
74881;BME280;63427;49.654;6.596;2023-06-14T06:57:36;99472.83;;;23.10;24.21
74881;BME280;63427;49.654;6.596;2023-06-14T07:00:01;99472.66;;;23.16;24.26
74881;BME280;63427;49.654;6.596;2023-06-14T07:02:27;99471.45;;;23.47;24.09
74881;BME280;63427;49.654;6.596;2023-06-14T07:04:52;99471.53;;;23.69;23.17
74881;BME280;63427;49.654;6.596;2023-06-14T07:07:17;99476.87;;;24.07;22.87
74881;BME280;63427;49.654;6.596;2023-06-14T07:09:43;99474.76;;;24.37;23.09
74881;BME280;63427;49.654;6.596;2023-06-14T07:12:08;99476.96;;;24.22;22.57
74881;BME280;63427;49.654;6.596;2023-06-14T07:14:33;99478.05;;;24.46;21.76
74881;BME280;63427;49.654;6.596;2023-06-14T07:16:59;99483.73;;;24.90;21.93
74881;BME280;63427;49.654;6.596;2023-06-14T07:19:24;99480.34;;;25.31;21.52
74881;BME280;63427;49.654;6.596;2023-06-14T07:21:50;99486.58;;;25.06;21.19
74881;BME280;63427;49.654;6.596;2023-06-14T07:24:15;99481.33;;;25.43;21.34
74881;BME280;63427;49.654;6.596;2023-06-14T07:26:40;99480.90;;;24.99;20.89
74881;BME280;63427;49.654;6.596;2023-06-14T07:29:05;99477.93;;;25.77;21.21
74881;BME280;63427;49.654;6.596;2023-06-14T07:31:31;99477.87;;;26.15;20.72
74881;BME280;63427;49.654;6.596;2023-06-14T07:33:56;99478.54;;;25.94;19.68
74881;BME280;63427;49.654;6.596;2023-06-14T07:36:21;99476.42;;;26.50;19.84
74881;BME280;63427;49.654;6.596;2023-06-14T07:38:46;99478.98;;;27.00;19.54
74881;BME280;63427;49.654;6.596;2023-06-14T07:41:12;99479.39;;;26.93;18.92
74881;BME280;63427;49.654;6.596;2023-06-14T07:43:37;99477.74;;;27.43;19.36
74881;BME280;63427;49.654;6.596;2023-06-14T07:46:02;99474.68;;;27.45;19.77
74881;BME280;63427;49.654;6.596;2023-06-14T07:48:34;99472.42;;;27.93;18.90
74881;BME280;63427;49.654;6.596;2023-06-14T07:50:53;99474.97;;;28.38;18.94
74881;BME280;63427;49.654;6.596;2023-06-14T07:53:18;99471.73;;;28.62;17.13
74881;BME280;63427;49.654;6.596;2023-06-14T07:55:44;99471.17;;;28.62;18.32
74881;BME280;63427;49.654;6.596;2023-06-14T07:58:10;99472.82;;;29.14;17.00
74881;BME280;63427;49.654;6.596;2023-06-14T08:00:35;99471.30;;;29.19;17.21
74881;BME280;63427;49.654;6.596;2023-06-14T08:03:01;99471.03;;;28.98;16.80
74881;BME280;63427;49.654;6.596;2023-06-14T08:05:27;99469.92;;;29.62;16.94
74881;BME280;63427;49.654;6.596;2023-06-14T08:07:52;99470.39;;;30.09;16.28
74881;BME280;63427;49.654;6.596;2023-06-14T08:10:18;99469.01;;;29.69;16.95
74881;BME280;63427;49.654;6.596;2023-06-14T08:12:43;99465.48;;;30.18;16.41
74881;BME280;63427;49.654;6.596;2023-06-14T08:15:10;99467.15;;;30.32;16.13
74881;BME280;63427;49.654;6.596;2023-06-14T08:17:35;99469.00;;;30.57;15.78
74881;BME280;63427;49.654;6.596;2023-06-14T08:20:00;99468.62;;;30.56;15.60
74881;BME280;63427;49.654;6.596;2023-06-14T08:22:25;99466.22;;;30.17;16.09
74881;BME280;63427;49.654;6.596;2023-06-14T08:24:51;99467.75;;;30.53;16.00
74881;BME280;63427;49.654;6.596;2023-06-14T08:27:16;99469.28;;;30.63;15.83
74881;BME280;63427;49.654;6.596;2023-06-14T08:29:42;99463.44;;;30.90;15.11
74881;BME280;63427;49.654;6.596;2023-06-14T08:32:07;99465.25;;;31.28;16.13
74881;BME280;63427;49.654;6.596;2023-06-14T08:34:33;99460.04;;;31.18;15.22
74881;BME280;63427;49.654;6.596;2023-06-14T08:37:00;99462.60;;;31.39;15.83
74881;BME280;63427;49.654;6.596;2023-06-14T08:39:24;99464.77;;;31.64;14.86
74881;BME280;63427;49.654;6.596;2023-06-14T08:41:50;99464.49;;;31.76;14.56
74881;BME280;63427;49.654;6.596;2023-06-14T08:44:16;99466.67;;;31.84;14.85
74881;BME280;63427;49.654;6.596;2023-06-14T08:46:42;99458.87;;;32.06;14.45
74881;BME280;63427;49.654;6.596;2023-06-14T08:49:06;99458.82;;;32.15;14.39
74881;BME280;63427;49.654;6.596;2023-06-14T08:51:32;99454.85;;;32.35;14.43
74881;BME280;63427;49.654;6.596;2023-06-14T08:53:57;99458.38;;;32.61;14.09
74881;BME280;63427;49.654;6.596;2023-06-14T08:56:25;99461.94;;;32.66;14.24
74881;BME280;63427;49.654;6.596;2023-06-14T08:58:49;99465.15;;;32.73;13.74
74881;BME280;63427;49.654;6.596;2023-06-14T09:01:13;99462.46;;;32.92;13.31
74881;BME280;63427;49.654;6.596;2023-06-14T09:03:39;99457.43;;;33.10;13.22
74881;BME280;63427;49.654;6.596;2023-06-14T09:06:04;99462.27;;;33.12;12.85
74881;BME280;63427;49.654;6.596;2023-06-14T09:08:30;99465.54;;;32.97;13.63
74881;BME280;63427;49.654;6.596;2023-06-14T09:10:56;99468.94;;;33.43;12.96
74881;BME280;63427;49.654;6.596;2023-06-14T09:13:21;99464.54;;;33.41;12.95
74881;BME280;63427;49.654;6.596;2023-06-14T09:15:46;99466.43;;;33.66;12.37
74881;BME280;63427;49.654;6.596;2023-06-14T09:18:12;99468.99;;;33.65;12.55
74881;BME280;63427;49.654;6.596;2023-06-14T09:20:38;99474.12;;;33.86;12.30
74881;BME280;63427;49.654;6.596;2023-06-14T09:23:04;99473.78;;;34.31;12.85
74881;BME280;63427;49.654;6.596;2023-06-14T09:25:29;99474.19;;;34.65;12.40
74881;BME280;63427;49.654;6.596;2023-06-14T09:27:54;99477.78;;;34.93;11.67
74881;BME280;63427;49.654;6.596;2023-06-14T09:30:21;99480.55;;;35.04;11.44
74881;BME280;63427;49.654;6.596;2023-06-14T09:32:45;99491.21;;;35.15;11.83
74881;BME280;63427;49.654;6.596;2023-06-14T09:35:11;99489.74;;;34.61;11.21
74881;BME280;63427;49.654;6.596;2023-06-14T09:37:36;99494.42;;;35.29;10.41
74881;BME280;63427;49.654;6.596;2023-06-14T09:40:03;99492.49;;;35.58;10.45
74881;BME280;63427;49.654;6.596;2023-06-14T09:42:28;99489.04;;;35.42;10.64
74881;BME280;63427;49.654;6.596;2023-06-14T09:44:54;99485.60;;;35.79;11.16
74881;BME280;63427;49.654;6.596;2023-06-14T09:47:19;99489.96;;;34.53;10.63
74881;BME280;63427;49.654;6.596;2023-06-14T09:49:44;99490.56;;;35.10;11.50
74881;BME280;63427;49.654;6.596;2023-06-14T09:52:15;99488.97;;;35.42;11.29
74881;BME280;63427;49.654;6.596;2023-06-14T09:54:40;99493.56;;;36.04;10.95
74881;BME280;63427;49.654;6.596;2023-06-14T09:57:02;99495.30;;;36.17;10.06
74881;BME280;63427;49.654;6.596;2023-06-14T09:59:28;99491.75;;;36.58;10.32
74881;BME280;63427;49.654;6.596;2023-06-14T10:01:52;99492.30;;;36.40;9.44
74881;BME280;63427;49.654;6.596;2023-06-14T10:04:21;99491.52;;;36.49;9.63
74881;BME280;63427;49.654;6.596;2023-06-14T10:06:45;99492.54;;;36.83;10.17
74881;BME280;63427;49.654;6.596;2023-06-14T10:09:09;99487.39;;;37.52;9.62
74881;BME280;63427;49.654;6.596;2023-06-14T10:11:35;99491.99;;;36.28;9.11
74881;BME280;63427;49.654;6.596;2023-06-14T10:14:00;99489.25;;;36.48;9.28
74881;BME280;63427;49.654;6.596;2023-06-14T10:16:30;99485.63;;;37.24;8.41
74881;BME280;63427;49.654;6.596;2023-06-14T10:18:58;99490.75;;;37.78;9.02
74881;BME280;63427;49.654;6.596;2023-06-14T10:21:22;99488.22;;;37.11;7.97
74881;BME280;63427;49.654;6.596;2023-06-14T10:23:43;99481.41;;;37.74;8.32
74881;BME280;63427;49.654;6.596;2023-06-14T10:26:07;99482.97;;;37.87;8.01
74881;BME280;63427;49.654;6.596;2023-06-14T10:28:32;99489.43;;;36.70;8.01
74881;BME280;63427;49.654;6.596;2023-06-14T10:31:05;99483.83;;;37.30;8.63
74881;BME280;63427;49.654;6.596;2023-06-14T10:33:24;99483.53;;;37.28;8.27
74881;BME280;63427;49.654;6.596;2023-06-14T10:35:49;99478.25;;;36.82;8.36
74881;BME280;63427;49.654;6.596;2023-06-14T10:38:15;99476.90;;;37.28;7.98
74881;BME280;63427;49.654;6.596;2023-06-14T10:40:41;99485.00;;;36.46;8.13
74881;BME280;63427;49.654;6.596;2023-06-14T10:43:21;99487.73;;;37.35;8.11
74881;BME280;63427;49.654;6.596;2023-06-14T10:45:31;99482.97;;;37.99;7.48
74881;BME280;63427;49.654;6.596;2023-06-14T10:47:57;99485.71;;;38.16;7.61
74881;BME280;63427;49.654;6.596;2023-06-14T10:50:27;99485.98;;;38.01;8.05
74881;BME280;63427;49.654;6.596;2023-06-14T10:52:48;99481.90;;;38.05;8.00
74881;BME280;63427;49.654;6.596;2023-06-14T10:55:16;99488.31;;;38.25;7.53
74881;BME280;63427;49.654;6.596;2023-06-14T10:57:40;99483.23;;;39.00;7.49
74881;BME280;63427;49.654;6.596;2023-06-14T11:00:06;99485.90;;;39.66;7.21
74881;BME280;63427;49.654;6.596;2023-06-14T11:04:56;99489.70;;;40.06;6.57
74881;BME280;63427;49.654;6.596;2023-06-14T11:07:33;99482.62;;;40.35;6.93
74881;BME280;63427;49.654;6.596;2023-06-14T11:09:54;99487.70;;;40.69;6.65
74881;BME280;63427;49.654;6.596;2023-06-14T11:12:12;99488.78;;;40.40;6.24
74881;BME280;63427;49.654;6.596;2023-06-14T11:14:38;99483.74;;;39.86;6.95
74881;BME280;63427;49.654;6.596;2023-06-14T11:17:03;99481.53;;;40.49;6.48
74881;BME280;63427;49.654;6.596;2023-06-14T11:19:28;99476.15;;;41.35;5.71
74881;BME280;63427;49.654;6.596;2023-06-14T11:21:53;99478.82;;;41.34;5.97
74881;BME280;63427;49.654;6.596;2023-06-14T11:24:20;99477.95;;;41.14;5.95
74881;BME280;63427;49.654;6.596;2023-06-14T11:26:46;99477.31;;;40.33;5.97
74881;BME280;63427;49.654;6.596;2023-06-14T11:29:10;99479.18;;;38.07;7.07
74881;BME280;63427;49.654;6.596;2023-06-14T11:31:43;99468.94;;;40.25;6.89
74881;BME280;63427;49.654;6.596;2023-06-14T11:34:00;99470.98;;;40.00;5.91
74881;BME280;63427;49.654;6.596;2023-06-14T11:36:27;99469.40;;;40.42;5.50
74881;BME280;63427;49.654;6.596;2023-06-14T11:38:59;99469.28;;;40.86;5.53
74881;BME280;63427;49.654;6.596;2023-06-14T11:41:17;99481.49;;;40.19;6.10
74881;BME280;63427;49.654;6.596;2023-06-14T11:43:42;99474.60;;;37.77;7.59
74881;BME280;63427;49.654;6.596;2023-06-14T11:46:12;99471.98;;;39.60;7.87
74881;BME280;63427;49.654;6.596;2023-06-14T11:48:37;99472.10;;;39.62;7.30
74881;BME280;63427;49.654;6.596;2023-06-14T11:50:59;99478.79;;;38.85;6.95
74881;BME280;63427;49.654;6.596;2023-06-14T11:53:24;99469.91;;;39.50;7.18
74881;BME280;63427;49.654;6.596;2023-06-14T11:55:49;99465.80;;;40.53;7.94
74881;BME280;63427;49.654;6.596;2023-06-14T11:58:15;99461.57;;;40.33;6.97
74881;BME280;63427;49.654;6.596;2023-06-14T12:00:40;99459.48;;;41.38;5.89
74881;BME280;63427;49.654;6.596;2023-06-14T12:03:07;99468.96;;;40.74;5.92
74881;BME280;63427;49.654;6.596;2023-06-14T12:05:33;99464.09;;;41.11;6.01
74881;BME280;63427;49.654;6.596;2023-06-14T12:08:02;99470.33;;;40.05;6.01
74881;BME280;63427;49.654;6.596;2023-06-14T12:10:22;99466.67;;;39.50;6.00
74881;BME280;63427;49.654;6.596;2023-06-14T12:12:47;99465.12;;;40.32;6.48
74881;BME280;63427;49.654;6.596;2023-06-14T12:15:13;99463.65;;;40.46;5.67
74881;BME280;63427;49.654;6.596;2023-06-14T12:17:39;99464.32;;;39.77;5.69
74881;BME280;63427;49.654;6.596;2023-06-14T12:20:06;99456.46;;;40.03;6.72
74881;BME280;63427;49.654;6.596;2023-06-14T12:22:29;99458.82;;;41.01;6.31
74881;BME280;63427;49.654;6.596;2023-06-14T12:24:54;99458.51;;;41.21;6.45
74881;BME280;63427;49.654;6.596;2023-06-14T12:27:21;99451.89;;;41.81;5.59
74881;BME280;63427;49.654;6.596;2023-06-14T12:29:45;99458.95;;;42.00;6.47
74881;BME280;63427;49.654;6.596;2023-06-14T12:32:11;99459.70;;;41.81;4.89
74881;BME280;63427;49.654;6.596;2023-06-14T12:34:36;99461.70;;;42.36;4.60
74881;BME280;63427;49.654;6.596;2023-06-14T12:37:02;99454.16;;;42.54;5.63
74881;BME280;63427;49.654;6.596;2023-06-14T12:39:26;99465.62;;;41.20;5.37
74881;BME280;63427;49.654;6.596;2023-06-14T12:41:52;99456.40;;;40.76;5.76
74881;BME280;63427;49.654;6.596;2023-06-14T12:44:17;99463.73;;;40.68;5.96
74881;BME280;63427;49.654;6.596;2023-06-14T12:46:43;99459.75;;;39.94;6.40
74881;BME280;63427;49.654;6.596;2023-06-14T12:49:08;99458.42;;;38.81;6.75
74881;BME280;63427;49.654;6.596;2023-06-14T12:51:33;99456.71;;;40.62;6.15
74881;BME280;63427;49.654;6.596;2023-06-14T12:53:59;99450.21;;;41.36;5.72